Time;durP1;ratioP1;P1;durP2;ratioP2;P2;SDS_P1;SDS_P2;PMS_P1;PMS_P2;Temp;Humidity;BMP_temperature;BMP_pressure;BME280_temperature;BME280_humidity;BME280_pressure;Samples;Min_cycle;Max_cycle;Signal;HPM_P1;HPM_P2
2022/12/02 00:04:28;;;;;;;11.13;7.43;;;8.80;98.40;;;;;;10168324;29;20251;-88
2022/12/02 00:09:33;;;;;;;16.63;10.63;;;9.70;99.20;;;;;;10170882;29;20192;-90
2022/12/02 00:14:38;;;;;;;17.67;9.83;;;9.20;96.70;;;;;;10169911;29;20266;-90
2022/12/02 00:19:40;;;;;;;12.73;8.80;;;8.50;96.00;;;;;;10169603;29;20211;-90
2022/12/02 00:24:43;;;;;;;17.07;10.83;;;9.00;98.20;;;;;;10170769;29;20223;-89
2022/12/02 00:29:46;;;;;;;17.37;10.70;;;9.00;95.30;;;;;;10168539;29;20259;-89
2022/12/02 00:34:48;;;;;;;17.20;11.30;;;8.50;97.60;;;;;;10168160;29;20317;-89
2022/12/02 00:39:52;;;;;;;20.90;13.30;;;8.60;97.80;;;;;;10169000;29;20228;-89
2022/12/02 00:50:16;;;;;;;19.10;12.77;;;8.80;97.90;;;;;;10167771;29;20231;-91
2022/12/02 00:55:19;;;;;;;32.00;18.30;;;8.80;96.10;;;;;;10167647;29;20593;-88
2022/12/02 01:00:22;;;;;;;27.80;16.43;;;8.30;89.90;;;;;;10168063;29;20274;-89
2022/12/02 01:05:24;;;;;;;16.27;10.87;;;8.00;94.90;;;;;;10136981;29;20271;-89
2022/12/02 01:10:27;;;;;;;13.83;9.57;;;7.90;98.60;;;;;;10167620;29;20606;-89
2022/12/02 01:15:30;;;;;;;15.63;10.27;;;8.10;99.90;;;;;;10166833;29;20268;-89
2022/12/02 01:20:33;;;;;;;19.07;10.97;;;8.80;99.90;;;;;;10167942;29;20274;-90
2022/12/02 01:25:36;;;;;;;20.67;12.27;;;8.80;96.60;;;;;;10170338;29;20259;-90
2022/12/02 01:30:39;;;;;;;20.53;12.83;;;8.70;93.90;;;;;;10168485;29;20267;-89
2022/12/02 01:35:42;;;;;;;29.43;16.93;;;8.90;97.00;;;;;;10166417;29;20310;-90
2022/12/02 01:40:47;;;;;;;20.63;11.77;;;8.40;93.20;;;;;;10156031;29;20239;-89
2022/12/02 01:45:49;;;;;;;16.87;11.83;;;8.80;95.90;;;;;;10174646;29;20200;-90
2022/12/02 01:50:52;;;;;;;14.03;9.90;;;8.70;97.40;;;;;;10175216;29;20648;-89
2022/12/02 01:55:55;;;;;;;17.03;9.97;;;8.70;98.30;;;;;;10173976;29;20267;-88
2022/12/02 02:00:57;;;;;;;31.90;16.93;;;8.80;97.80;;;;;;10173437;29;20251;-89
2022/12/02 02:06:00;;;;;;;19.47;12.70;;;8.20;90.90;;;;;;10158282;29;20294;-88
2022/12/02 02:11:03;;;;;;;25.53;13.83;;;7.80;97.20;;;;;;10173665;29;20235;-89
2022/12/02 02:16:05;;;;;;;19.40;12.60;;;7.70;97.40;;;;;;10173349;29;20679;-89
2022/12/02 02:21:15;;;;;;;13.53;8.93;;;8.30;98.60;;;;;;10172341;29;20657;-89
2022/12/02 02:26:18;;;;;;;14.83;9.27;;;8.50;99.40;;;;;;10172551;29;20204;-90
2022/12/02 02:31:20;;;;;;;17.37;9.97;;;8.30;99.30;;;;;;10172226;29;20211;-90
2022/12/02 02:36:23;;;;;;;14.10;8.70;;;8.20;97.80;;;;;;10172519;29;20635;-88
2022/12/02 02:41:27;;;;;;;18.07;9.47;;;8.20;97.10;;;;;;10172704;29;20228;-89
2022/12/02 02:46:30;;;;;;;14.13;8.70;;;8.30;98.30;;;;;;10172170;29;20256;-90
2022/12/02 02:51:33;;;;;;;16.67;10.03;;;8.50;99.90;;;;;;10171322;29;20639;-90
2022/12/02 02:56:37;;;;;;;17.30;10.40;;;9.00;97.90;;;;;;10171053;29;20283;-91
2022/12/02 03:01:42;;;;;;;21.43;13.77;;;9.20;97.40;;;;;;10171081;29;20708;-89
2022/12/02 03:06:48;;;;;;;13.37;9.30;;;8.90;94.00;;;;;;10153982;29;20295;-89
2022/12/02 03:11:53;;;;;;;13.87;8.23;;;8.70;97.80;;;;;;10171411;29;20283;-89
2022/12/02 03:17:00;;;;;;;16.77;10.70;;;9.00;99.20;;;;;;10169718;29;20299;-90
2022/12/02 03:22:03;;;;;;;15.50;10.13;;;8.60;98.30;;;;;;10153005;29;20270;-89
2022/12/02 03:27:07;;;;;;;21.40;12.97;;;8.50;95.90;;;;;;10169461;29;20235;-89
2022/12/02 03:32:10;;;;;;;20.33;11.23;;;8.30;98.50;;;;;;10167094;29;20236;-89
2022/12/02 03:37:13;;;;;;;17.27;10.80;;;8.00;98.80;;;;;;10131894;29;20710;-89
2022/12/02 03:42:16;;;;;;;13.50;8.30;;;8.30;99.90;;;;;;10133369;29;20279;-89
2022/12/02 03:47:19;;;;;;;22.77;13.67;;;8.90;98.10;;;;;;10153552;29;20315;-89
2022/12/02 03:52:32;;;;;;;19.73;10.33;;;8.60;96.50;;;;;;10162646;29;20211;-90
2022/12/02 03:57:35;;;;;;;23.50;13.07;;;8.40;99.90;;;;;;10144631;29;20622;-90
2022/12/02 04:02:38;;;;;;;13.33;8.57;;;8.60;93.50;;;;;;10153286;29;20301;-90
2022/12/02 04:07:40;;;;;;;12.10;8.80;;;9.00;94.60;;;;;;10155885;29;20735;-90
2022/12/02 04:12:49;;;;;;;16.63;11.33;;;8.70;99.20;;;;;;10149037;29;20231;-90
2022/12/02 04:17:52;;;;;;;16.33;10.97;;;8.50;94.80;;;;;;10147625;29;20653;-89
2022/12/02 04:22:54;;;;;;;15.53;9.87;;;8.70;97.80;;;;;;10149005;29;20255;-90
2022/12/02 04:27:58;;;;;;;13.60;8.73;;;8.60;98.20;;;;;;10138800;29;20235;-90
2022/12/02 04:33:00;;;;;;;11.60;7.57;;;8.40;99.90;;;;;;10135419;29;20267;-90
2022/12/02 04:38:04;;;;;;;16.40;11.50;;;8.40;99.90;;;;;;10167093;29;20234;-91
2022/12/02 04:43:13;;;;;;;17.33;11.30;;;8.00;92.80;;;;;;10151511;29;20729;-91
2022/12/02 04:48:15;;;;;;;18.63;11.60;;;8.10;97.40;;;;;;10166792;29;20645;-90
2022/12/02 04:53:18;;;;;;;17.77;10.57;;;8.90;98.10;;;;;;10168070;29;20896;-90
2022/12/02 04:58:21;;;;;;;17.67;11.13;;;8.50;97.20;;;;;;10167006;29;20211;-90
2022/12/02 05:03:23;;;;;;;14.97;10.13;;;8.40;95.70;;;;;;10167326;29;20274;-91
2022/12/02 05:08:26;;;;;;;9.30;7.73;;;8.30;98.50;;;;;;10166428;29;20740;-90
2022/12/02 05:13:28;;;;;;;14.40;9.10;;;9.00;98.40;;;;;;10160220;29;20207;-89
2022/12/02 05:18:30;;;;;;;18.53;12.00;;;8.90;99.70;;;;;;10145621;29;20246;-89
2022/12/02 05:23:33;;;;;;;29.07;15.40;;;8.90;97.40;;;;;;10183254;29;20259;-88
2022/12/02 05:28:35;;;;;;;18.53;11.27;;;8.30;97.30;;;;;;10174484;29;20204;-88
2022/12/02 05:33:38;;;;;;;21.60;12.40;;;8.10;95.80;;;;;;10174581;29;20243;-92
2022/12/02 05:38:40;;;;;;;9.93;7.90;;;8.90;90.00;;;;;;10173579;29;20219;-91
2022/12/02 05:43:43;;;;;;;17.60;11.83;;;9.60;96.60;;;;;;10174830;29;20255;-89
2022/12/02 05:48:47;;;;;;;19.53;13.50;;;9.20;91.30;;;;;;10173333;29;20236;-91
2022/12/02 05:53:50;;;;;;;12.07;9.60;;;8.10;86.00;;;;;;10173086;29;20276;-89
2022/12/02 05:59:00;;;;;;;17.60;11.17;;;8.60;94.90;;;;;;10149727;29;20264;-90
2022/12/02 06:04:04;;;;;;;12.67;9.73;;;6.90;98.50;;;;;;10139611;29;20263;-90
2022/12/02 06:09:21;;;;;;;25.20;16.03;;;8.00;99.90;;;;;;10172263;29;20236;-90
2022/12/02 06:14:30;;;;;;;13.30;9.00;;;7.60;94.80;;;;;;10158101;29;20247;-90
2022/12/02 06:19:46;;;;;;;12.30;7.47;;;7.70;99.90;;;;;;10175944;29;20587;-89
2022/12/02 06:24:50;;;;;;;15.53;10.87;;;8.40;97.70;;;;;;10171982;29;20223;-89
2022/12/02 06:30:04;;;;;;;16.20;9.97;;;8.50;95.00;;;;;;10172015;29;20231;-90
2022/12/02 06:35:23;;;;;;;20.77;14.20;;;8.20;98.00;;;;;;10172385;29;20227;-89
2022/12/02 06:40:29;;;;;;;18.87;13.47;;;8.50;94.40;;;;;;10169016;29;20629;-90
2022/12/02 06:45:33;;;;;;;19.27;11.27;;;8.70;94.60;;;;;;10171375;29;20341;-91
2022/12/02 06:50:41;;;;;;;19.87;12.67;;;8.50;98.50;;;;;;10168478;29;20276;-89
2022/12/02 06:55:45;;;;;;;22.33;12.60;;;9.10;91.70;;;;;;10172027;29;20309;-89
2022/12/02 07:00:59;;;;;;;29.60;18.47;;;9.00;87.30;;;;;;10171493;29;20235;-90
2022/12/02 07:06:12;;;;;;;22.47;12.83;;;8.10;75.90;;;;;;10176184;29;20229;-87
2022/12/02 07:11:48;;;;;;;22.27;15.07;;;9.00;83.20;;;;;;10169663;29;20233;-89
2022/12/02 07:16:45;;;;;;;33.13;21.20;;;9.30;77.60;;;;;;10169567;29;20233;-88
2022/12/02 07:21:48;;;;;;;28.43;17.23;;;7.90;70.60;;;;;;10155293;29;20214;-88
2022/12/02 07:26:55;;;;;;;21.30;13.43;;;7.90;80.80;;;;;;10161567;29;20235;-89
2022/12/02 07:32:05;;;;;;;25.67;16.67;;;8.50;85.20;;;;;;10167308;29;20297;-87
2022/12/02 07:37:07;;;;;;;24.27;13.83;;;8.90;79.70;;;;;;10173286;29;20244;-88
2022/12/02 07:42:10;;;;;;;32.50;20.03;;;8.70;79.80;;;;;;10166435;29;20290;-87
2022/12/02 07:47:13;;;;;;;31.70;18.03;;;8.20;75.00;;;;;;10166064;29;20738;-88
2022/12/02 07:52:16;;;;;;;27.23;16.43;;;8.80;77.80;;;;;;10171007;29;20231;-88
2022/12/02 07:57:19;;;;;;;21.57;11.97;;;8.80;80.30;;;;;;10165689;29;20241;-88
2022/12/02 08:02:22;;;;;;;27.60;17.63;;;8.70;82.80;;;;;;10163044;29;20231;-87
2022/12/02 08:07:24;;;;;;;29.60;16.87;;;8.60;79.10;;;;;;10160692;29;20294;-87
2022/12/02 08:12:27;;;;;;;21.97;12.47;;;8.50;75.70;;;;;;10151623;29;20276;-87
2022/12/02 08:17:29;;;;;;;24.53;12.97;;;8.70;84.80;;;;;;10164825;29;20264;-88
2022/12/02 08:22:32;;;;;;;17.87;11.30;;;9.00;90.50;;;;;;10164997;29;20768;-87
2022/12/02 08:27:34;;;;;;;19.17;11.77;;;8.60;89.60;;;;;;10161698;29;20219;-88
2022/12/02 08:32:37;;;;;;;19.07;11.43;;;8.70;89.50;;;;;;10165081;29;20228;-87
2022/12/02 08:37:40;;;;;;;19.40;11.23;;;8.50;90.00;;;;;;10166055;29;20239;-88
2022/12/02 08:42:43;;;;;;;26.27;16.30;;;7.90;92.40;;;;;;10166571;29;20255;-88
2022/12/02 08:47:45;;;;;;;31.23;17.23;;;8.00;88.00;;;;;;10166381;29;20255;-88
2022/12/02 08:52:48;;;;;;;21.60;13.77;;;7.80;86.70;;;;;;10172753;29;20240;-88
2022/12/02 08:57:59;;;;;;;21.77;12.63;;;8.90;90.10;;;;;;10176135;29;20231;-87
2022/12/02 09:03:17;;;;;;;25.50;16.00;;;8.90;92.70;;;;;;10178217;29;20254;-88
2022/12/02 09:08:20;;;;;;;27.60;17.03;;;9.20;80.40;;;;;;10179328;29;20642;-87
2022/12/02 09:13:22;;;;;;;27.87;16.43;;;8.90;89.70;;;;;;10161740;29;20316;-87
2022/12/02 09:24:03;;;;;;;30.37;18.20;;;8.70;94.80;;;;;;9241470;23;20243;-83
2022/12/02 09:29:05;;;;;;;30.63;15.90;;;8.80;88.10;;;;;;10111044;29;20236;-82
2022/12/02 09:34:08;;;;;;;18.23;11.17;;;8.40;91.30;;;;;;10151326;29;20228;-81
2022/12/02 09:39:10;;;;;;;29.80;18.67;;;7.50;94.40;;;;;;10136926;29;20331;-82
2022/12/02 09:44:14;;;;;;;24.93;14.77;;;7.80;93.50;;;;;;10143780;29;20251;-83
2022/12/02 09:49:17;;;;;;;23.87;13.60;;;8.10;90.30;;;;;;10147866;29;20239;-82
2022/12/02 09:54:19;;;;;;;24.70;14.47;;;7.90;94.30;;;;;;10158508;29;20248;-82
2022/12/02 09:59:22;;;;;;;25.93;15.30;;;7.40;96.30;;;;;;10140396;29;20236;-81
2022/12/02 10:04:24;;;;;;;23.23;14.50;;;7.60;95.60;;;;;;10131209;29;20256;-82
2022/12/02 10:09:29;;;;;;;26.73;15.67;;;8.30;92.40;;;;;;10163763;29;20235;-82
2022/12/02 10:14:32;;;;;;;19.63;11.57;;;8.80;91.40;;;;;;10161803;29;20231;-82
2022/12/02 10:19:35;;;;;;;24.37;13.53;;;8.50;89.70;;;;;;10148347;29;20279;-82
2022/12/02 10:24:38;;;;;;;24.97;15.40;;;8.30;92.70;;;;;;10143651;29;20268;-82
2022/12/02 10:29:40;;;;;;;27.23;17.10;;;8.20;88.30;;;;;;10137620;29;20220;-83
2022/12/02 10:35:02;;;;;;;25.83;16.00;;;8.20;82.90;;;;;;10149550;29;20361;-82
2022/12/02 10:40:18;;;;;;;19.40;12.47;;;8.20;91.70;;;;;;10135265;29;20243;-83
2022/12/02 10:45:23;;;;;;;25.97;15.87;;;7.50;88.00;;;;;;10132837;29;20339;-83
2022/12/02 10:50:25;;;;;;;29.17;16.70;;;8.00;91.40;;;;;;10132013;29;20264;-83
2022/12/02 10:55:27;;;;;;;22.93;14.50;;;8.80;92.00;;;;;;10129619;29;20291;-83
2022/12/02 11:00:30;;;;;;;30.43;19.93;;;8.80;91.70;;;;;;10127060;29;20670;-83
2022/12/02 11:05:34;;;;;;;26.00;17.37;;;8.40;80.10;;;;;;10124319;29;20255;-85
2022/12/02 11:10:39;;;;;;;54.27;34.57;;;8.40;89.70;;;;;;10130648;29;20228;-86
2022/12/02 11:15:54;;;;;;;28.00;17.93;;;7.30;74.20;;;;;;10120064;29;20236;-85
2022/12/02 11:21:00;;;;;;;17.30;11.97;;;7.70;95.30;;;;;;10114538;29;20276;-84
2022/12/02 11:26:10;;;;;;;33.33;21.07;;;7.40;96.40;;;;;;10151165;29;20263;-82
2022/12/02 11:31:13;;;;;;;26.57;16.43;;;8.30;90.70;;;;;;10138044;29;20243;-83
2022/12/02 11:36:27;;;;;;;29.37;18.17;;;8.40;91.30;;;;;;10161758;29;20310;-82
2022/12/02 11:41:51;;;;;;;23.67;14.20;;;8.30;95.50;;;;;;10137241;29;20685;-82
2022/12/02 11:46:56;;;;;;;45.10;28.33;;;8.30;81.10;;;;;;10136867;29;21147;-82
2022/12/02 11:52:12;;;;;;;30.77;16.30;;;7.90;68.60;;;;;;10129300;29;20307;-83
2022/12/02 11:57:20;;;;;;;22.07;11.37;;;7.80;92.30;;;;;;10138447;29;20244;-83
2022/12/02 12:02:24;;;;;;;24.20;13.67;;;6.80;99.90;;;;;;10134160;29;20735;-82
2022/12/02 12:07:41;;;;;;;23.83;14.87;;;7.00;96.70;;;;;;10128356;29;20310;-82
2022/12/02 12:13:25;;;;;;;46.40;25.03;;;7.50;98.90;;;;;;10127895;29;20760;-82
2022/12/02 12:18:37;;;;;;;49.63;27.07;;;7.70;94.80;;;;;;10075245;29;20288;-83
2022/12/02 12:23:43;;;;;;;16.37;10.13;;;8.20;81.30;;;;;;10113965;29;20730;-82
2022/12/02 12:28:45;;;;;;;24.17;10.50;;;9.00;95.70;;;;;;10118540;29;20232;-82
2022/12/02 12:33:48;;;;;;;37.87;19.63;;;8.40;85.30;;;;;;10157986;23;20343;-90
2022/12/02 12:38:51;;;;;;;44.13;25.90;;;9.60;66.80;;;;;;10167126;29;20243;-90
2022/12/02 12:43:53;;;;;;;44.03;24.73;;;9.10;59.00;;;;;;10151100;29;20338;-90
2022/12/02 12:48:57;;;;;;;33.07;19.53;;;8.20;60.20;;;;;;10167298;29;20231;-90
2022/12/02 12:54:00;;;;;;;41.30;21.73;;;8.30;66.40;;;;;;10167231;29;20300;-91
2022/12/02 12:59:04;;;;;;;35.93;20.23;;;8.10;69.40;;;;;;10152566;29;20294;-91
2022/12/02 13:04:06;;;;;;;34.50;20.07;;;8.20;71.40;;;;;;10151407;29;20239;-90
2022/12/02 13:09:10;;;;;;;36.03;24.20;;;8.50;70.60;;;;;;10168566;29;20235;-90
2022/12/02 13:14:12;;;;;;;38.77;22.30;;;8.30;60.80;;;;;;10167397;29;20259;-91
2022/12/02 13:19:15;;;;;;;34.40;19.87;;;8.10;62.90;;;;;;10166726;29;20228;-90
2022/12/02 13:24:18;;;;;;;35.37;19.43;;;8.40;70.10;;;;;;10150023;29;20263;-91
2022/12/02 13:29:21;;;;;;;38.73;22.57;;;8.80;68.20;;;;;;10167311;29;20239;-92
2022/12/02 13:34:23;;;;;;;33.97;19.13;;;8.80;65.80;;;;;;10165793;29;20254;-91
2022/12/02 13:39:26;;;;;;;31.00;18.57;;;8.90;73.00;;;;;;10173868;29;20583;-89
2022/12/02 13:44:28;;;;;;;33.47;20.03;;;8.80;73.30;;;;;;10173602;29;20270;-91
2022/12/02 13:49:32;;;;;;;31.47;16.73;;;8.60;72.70;;;;;;10166940;29;20235;-91
2022/12/02 13:54:41;;;;;;;29.17;17.87;;;8.70;75.40;;;;;;10138272;29;20247;-92
2022/12/02 13:59:43;;;;;;;33.63;18.10;;;9.00;72.40;;;;;;10151316;29;20231;-91
2022/12/02 14:04:46;;;;;;;26.90;17.57;;;8.50;77.40;;;;;;10151796;29;20263;-90
2022/12/02 14:09:49;;;;;;;39.13;23.90;;;9.10;70.00;;;;;;10136260;29;20236;-89
2022/12/02 14:14:51;;;;;;;28.37;19.73;;;8.50;65.80;;;;;;10151539;29;20239;-89
2022/12/02 14:19:54;;;;;;;31.10;20.20;;;9.20;74.80;;;;;;10149255;29;20280;-91
2022/12/02 14:24:57;;;;;;;32.80;20.40;;;8.40;73.20;;;;;;10132691;29;20727;-93
2022/12/02 14:30:00;;;;;;;27.57;18.93;;;8.70;76.20;;;;;;10133029;29;20645;-90
2022/12/02 14:35:04;;;;;;;31.87;18.13;;;8.60;73.80;;;;;;10133492;29;20272;-90
2022/12/02 14:40:07;;;;;;;29.20;18.97;;;8.70;77.30;;;;;;10132132;29;20288;-92
2022/12/02 14:45:10;;;;;;;34.57;21.17;;;8.00;71.10;;;;;;10133263;29;20730;-92
2022/12/02 14:50:12;;;;;;;34.27;22.83;;;8.30;71.30;;;;;;10132902;29;20208;-90
2022/12/02 14:55:15;;;;;;;40.97;22.17;;;8.00;64.20;;;;;;10117463;29;20251;-92
2022/12/02 15:00:19;;;;;;;31.20;16.60;;;7.90;68.00;;;;;;10132741;29;20268;-91
2022/12/02 15:05:22;;;;;;;35.63;21.57;;;8.00;76.70;;;;;;10131764;29;20316;-90
2022/12/02 15:10:25;;;;;;;25.57;14.17;;;7.80;73.10;;;;;;10131819;29;20213;-92
2022/12/02 15:15:27;;;;;;;27.90;16.33;;;7.80;77.40;;;;;;10131527;29;20677;-92
2022/12/02 15:20:40;;;;;;;26.23;17.60;;;8.40;83.60;;;;;;10131346;29;20250;-90
2022/12/02 15:25:43;;;;;;;29.63;17.93;;;8.30;75.90;;;;;;10115344;29;20267;-90
2022/12/02 15:30:45;;;;;;;20.73;13.40;;;8.30;74.10;;;;;;10130579;29;20232;-91
2022/12/02 15:35:48;;;;;;;28.43;18.83;;;8.40;81.20;;;;;;10130400;29;20244;-92
2022/12/02 15:40:51;;;;;;;30.30;16.90;;;8.90;73.80;;;;;;10115152;29;20248;-91
2022/12/02 15:45:53;;;;;;;21.37;13.03;;;8.70;71.10;;;;;;10130134;29;20264;-91
2022/12/02 15:50:56;;;;;;;24.20;14.50;;;9.20;80.30;;;;;;10114708;29;20244;-91
2022/12/02 15:55:58;;;;;;;24.53;16.27;;;9.30;76.20;;;;;;10162165;29;20247;-90
2022/12/02 16:01:01;;;;;;;21.70;13.83;;;9.00;74.80;;;;;;10206787;29;20569;-91
2022/12/02 16:06:04;;;;;;;23.30;14.47;;;9.00;80.70;;;;;;10208819;29;20301;-90
2022/12/02 16:11:07;;;;;;;36.90;17.90;;;8.80;77.10;;;;;;10192042;29;20695;-91
2022/12/02 16:16:09;;;;;;;23.33;15.40;;;8.70;71.90;;;;;;10207290;29;20235;-90
2022/12/02 16:21:11;;;;;;;22.10;14.60;;;8.20;82.20;;;;;;10206459;29;20704;-91
2022/12/02 16:26:14;;;;;;;33.10;21.87;;;9.10;78.40;;;;;;10172174;29;20270;-87
2022/12/02 16:31:16;;;;;;;56.37;18.43;;;8.40;55.40;;;;;;10162387;29;20245;-91
2022/12/02 16:36:19;;;;;;;50.73;18.67;;;6.80;94.30;;;;;;10162647;29;20254;-90
2022/12/02 16:41:22;;;;;;;33.90;12.60;;;7.50;90.00;;;;;;10169197;29;20290;-90
2022/12/02 16:46:24;;;;;;;58.07;18.87;;;8.90;81.50;;;;;;10152600;29;20271;-90
2022/12/02 16:51:27;;;;;;;49.90;18.67;;;8.70;75.40;;;;;;10165910;29;20302;-91
2022/12/02 16:56:31;;;;;;;33.47;17.10;;;9.30;71.60;;;;;;10168065;29;20207;-90
2022/12/02 17:01:33;;;;;;;31.83;16.17;;;9.70;62.90;;;;;;10167785;29;20204;-89
2022/12/02 17:06:36;;;;;;;93.30;28.67;;;9.90;52.40;;;;;;10166472;29;20255;-84
2022/12/02 17:11:39;;;;;;;50.27;18.47;;;9.80;46.70;;;;;;10163333;29;20255;-84
2022/12/02 17:16:41;;;;;;;63.77;26.07;;;9.20;48.60;;;;;;10158124;29;20353;-84
2022/12/02 17:21:44;;;;;;;63.53;20.90;;;8.40;48.00;;;;;;10168001;29;20243;-84
2022/12/02 17:26:46;;;;;;;68.53;22.13;;;7.30;63.90;;;;;;10174562;29;20336;-84
2022/12/02 17:31:56;;;;;;;57.57;21.27;;;7.80;57.80;;;;;;10174022;29;20299;-84
2022/12/02 17:36:59;;;;;;;45.80;22.80;;;8.50;57.40;;;;;;10159118;29;20259;-84
2022/12/02 17:42:01;;;;;;;53.43;21.17;;;8.10;53.10;;;;;;10173971;29;20231;-84
2022/12/02 17:47:04;;;;;;;52.97;20.90;;;7.90;62.20;;;;;;10173893;29;20982;-84
2022/12/02 17:52:06;;;;;;;44.00;20.07;;;7.80;57.40;;;;;;10175364;29;20235;-84
2022/12/02 17:57:23;;;;;;;31.63;22.90;;;7.60;60.60;;;;;;10173677;29;20263;-84
2022/12/02 18:02:26;;;;;;;40.97;18.60;;;7.40;55.10;;;;;;10157291;29;20263;-84
2022/12/02 18:07:29;;;;;;;52.80;16.93;;;8.20;61.40;;;;;;10166433;29;20274;-84
2022/12/02 18:12:32;;;;;;;34.00;17.67;;;8.20;68.40;;;;;;10172987;29;20223;-84
2022/12/02 18:17:34;;;;;;;45.33;18.53;;;8.10;66.40;;;;;;10171360;29;20226;-84
2022/12/02 18:22:36;;;;;;;44.27;24.17;;;8.10;59.40;;;;;;9829019;29;10000411;-84
2022/12/02 18:27:39;;;;;;;36.17;18.60;;;7.40;54.70;;;;;;10151443;29;20267;-84
2022/12/02 18:32:41;;;;;;;47.47;19.10;;;8.20;66.70;;;;;;10168555;29;20925;-84
2022/12/02 18:37:44;;;;;;;27.07;14.63;;;8.30;66.40;;;;;;10170410;29;20898;-84
2022/12/02 18:42:46;;;;;;;36.87;19.43;;;7.90;66.80;;;;;;10149078;29;20240;-84
2022/12/02 18:47:49;;;;;;;33.73;15.13;;;8.40;65.10;;;;;;10150127;29;20343;-85
2022/12/02 18:52:51;;;;;;;32.60;14.50;;;8.60;67.20;;;;;;9830551;29;10000061;-84
2022/12/02 18:57:54;;;;;;;41.73;16.97;;;9.10;66.30;;;;;;9830617;29;10000272;-84
2022/12/02 19:02:56;;;;;;;35.67;17.63;;;8.90;68.60;;;;;;10168206;29;20256;-84
2022/12/02 19:07:59;;;;;;;37.77;19.40;;;9.30;63.70;;;;;;10168425;29;20730;-84
2022/12/02 19:13:02;;;;;;;31.63;15.97;;;8.90;65.80;;;;;;10167237;29;20858;-83
2022/12/02 19:18:04;;;;;;;31.50;18.80;;;8.80;64.30;;;;;;10140440;29;20736;-84
2022/12/02 19:23:07;;;;;;;37.17;17.27;;;8.40;59.20;;;;;;10168938;29;20243;-84
2022/12/02 19:28:09;;;;;;;38.77;21.07;;;8.70;60.30;;;;;;10167741;29;20262;-84
2022/12/02 19:33:12;;;;;;;36.13;19.53;;;8.00;65.70;;;;;;10150645;29;20350;-84
2022/12/02 19:38:14;;;;;;;44.77;29.60;;;8.20;61.70;;;;;;10160501;29;20318;-85
2022/12/02 19:43:17;;;;;;;29.17;18.20;;;5.60;55.30;;;;;;10148445;29;20273;-84
2022/12/02 19:48:22;;;;;;;27.57;16.17;;;4.60;99.90;;;;;;10163114;29;20682;-85
2022/12/02 19:53:24;;;;;;;31.93;16.30;;;6.30;99.90;;;;;;10164045;29;20242;-84
2022/12/02 19:58:27;;;;;;;38.13;21.20;;;7.30;92.60;;;;;;10163138;29;20688;-84
2022/12/02 20:03:29;;;;;;;24.93;11.30;;;7.60;76.10;;;;;;10165245;29;20239;-84
2022/12/02 20:08:31;;;;;;;22.97;10.93;;;7.10;95.70;;;;;;10148489;29;20251;-84
2022/12/02 20:13:34;;;;;;;32.53;15.07;;;8.00;91.20;;;;;;10160026;29;20239;-84
2022/12/02 20:18:36;;;;;;;27.23;16.37;;;8.60;81.80;;;;;;10154040;29;20231;-84
2022/12/02 20:23:39;;;;;;;30.33;18.00;;;7.60;89.70;;;;;;10163862;29;20800;-84
2022/12/02 20:28:41;;;;;;;25.20;15.67;;;7.80;81.60;;;;;;10164097;29;20311;-84
2022/12/02 20:33:43;;;;;;;21.77;12.77;;;7.50;81.00;;;;;;10148710;29;20342;-84
2022/12/02 20:38:46;;;;;;;27.30;15.40;;;7.90;90.40;;;;;;10162679;29;20243;-84
2022/12/02 20:43:48;;;;;;;36.63;24.17;;;8.30;75.20;;;;;;10164350;29;20283;-84
2022/12/02 20:48:51;;;;;;;30.50;17.17;;;7.60;72.10;;;;;;10152081;29;20785;-84
2022/12/02 20:53:53;;;;;;;22.97;15.63;;;7.80;76.50;;;;;;10164338;29;20242;-86
2022/12/02 20:58:56;;;;;;;43.40;29.77;;;;;;;;;;10170357;29;20559;-85
2022/12/02 21:03:59;;;;;;;61.03;33.53;;;;;;;;;;10153200;29;20271;-85
2022/12/02 21:09:01;;;;;;;37.93;21.63;;;0.40;99.90;;;;;;10167635;29;20223;-90
2022/12/02 21:14:04;;;;;;;31.57;17.00;;;3.40;99.90;;;;;;10152362;29;20617;-89
2022/12/02 21:19:06;;;;;;;37.80;20.07;;;5.50;98.50;;;;;;10168622;29;20231;-89
2022/12/02 21:24:09;;;;;;;43.33;26.37;;;6.70;86.10;;;;;;10168312;29;20404;-89
2022/12/02 21:29:11;;;;;;;46.63;26.50;;;5.80;66.20;;;;;;10166611;29;20388;-89
2022/12/02 21:34:14;;;;;;;55.23;31.63;;;;;;;;;;10167916;29;20263;-91
2022/12/02 21:39:16;;;;;;;51.10;29.43;;;-0.30;99.90;;;;;;10167623;29;20235;-92
2022/12/02 21:44:21;;;;;;;61.00;33.67;;;;;;;;;;10152805;29;20278;-89
2022/12/02 21:49:23;;;;;;;52.73;29.80;;;-1.40;99.90;;;;;;10168961;29;20256;-88
2022/12/02 21:54:26;;;;;;;48.87;25.87;;;-1.50;99.90;;;;;;10168384;29;20275;-89
2022/12/02 21:59:29;;;;;;;62.43;32.50;;;-1.70;99.90;;;;;;10171878;29;20690;-91
2022/12/02 22:04:31;;;;;;;65.70;35.03;;;-1.80;99.90;;;;;;10154793;29;20260;-87
2022/12/02 22:09:34;;;;;;;59.13;31.83;;;-1.90;99.90;;;;;;10155548;29;20244;-89
2022/12/02 22:14:36;;;;;;;42.87;24.17;;;-2.00;99.90;;;;;;10174661;29;20231;-86
2022/12/02 22:19:39;;;;;;;61.73;33.13;;;-2.00;99.90;;;;;;10174653;29;20294;-88
2022/12/02 22:24:41;;;;;;;68.00;34.63;;;-1.90;99.90;;;;;;10175303;29;20243;-87
2022/12/02 22:29:44;;;;;;;64.97;31.73;;;-2.00;99.90;;;;;;10173829;29;20263;-87
2022/12/02 22:34:46;;;;;;;68.60;36.10;;;-2.10;99.90;;;;;;10174722;29;20319;-87
2022/12/02 22:39:48;;;;;;;58.37;27.60;;;-2.10;99.90;;;;;;10158039;29;20212;-88
2022/12/02 22:44:51;;;;;;;71.57;36.63;;;;;;;;;;10174682;29;20255;-88
2022/12/02 22:49:54;;;;;;;69.60;34.53;;;-2.20;99.90;;;;;;10154352;29;20280;-88
2022/12/02 22:54:57;;;;;;;69.33;32.30;;;-2.20;99.90;;;;;;10151324;29;20264;-87
2022/12/02 23:00:00;;;;;;;64.33;35.60;;;-2.20;99.90;;;;;;10146399;29;20231;-88
2022/12/02 23:05:03;;;;;;;65.33;34.30;;;-2.20;99.90;;;;;;10122572;29;20233;-88
2022/12/02 23:10:06;;;;;;;56.40;22.00;;;-2.20;99.90;;;;;;10144128;29;20312;-89
2022/12/02 23:15:09;;;;;;;76.40;36.23;;;-2.30;99.90;;;;;;10161752;29;21035;-91
2022/12/02 23:20:32;;;;;;;72.20;35.50;;;-2.30;99.90;;;;;;10164613;29;20742;-88
2022/12/02 23:25:34;;;;;;;66.73;33.53;;;-2.30;99.90;;;;;;10167662;29;20656;-88
2022/12/02 23:30:37;;;;;;;66.70;34.03;;;-2.30;99.90;;;;;;10158322;29;20279;-88
2022/12/02 23:35:39;;;;;;;40.37;20.37;;;-2.30;99.90;;;;;;10168315;29;20199;-89
2022/12/02 23:40:41;;;;;;;60.57;24.77;;;-2.30;99.90;;;;;;10161942;29;20717;-90
2022/12/02 23:45:44;;;;;;;83.07;38.70;;;0.30;99.90;;;;;;10169308;29;21468;-93
2022/12/02 23:50:46;;;;;;;46.43;20.60;;;3.80;99.90;;;;;;10169915;29;20646;-91
2022/12/02 23:55:49;;;;;;;37.40;19.17;;;3.50;99.90;;;;;;10140689;29;20263;-91
